.
WxDataArchive / Data Records for 2014-10-31
2014-10-30 October 2014 2014-11-01

Data Records for Friday, 31 October 2014

Time	Temp	Chill	HIndex	Humid	Dewpt	 Wind 	HiWind	WindDir	Rain 	Barom
-----	----	-----	------	-----	-----	------	------	-------	-----	-----
00:00	43.8	43.8	43.8	73	35.7	0	0	---	0.00	30.016 
00:05	43.9	43.9	43.9	73	35.8	0	0	---	0.00	30.016 
00:10	43.9	43.9	43.9	73	35.8	0	0	---	0.00	30.016 
00:15	43.9	43.9	43.9	73	35.8	0	0	---	0.00	30.012 
00:20	43.9	43.9	43.9	73	35.8	0	0	---	0.00	30.012 
00:25	43.9	43.9	43.9	73	35.8	0	0	---	0.00	30.012 
00:30	43.9	43.9	43.9	73	35.8	0	0	---	0.00	30.011 
00:35	43.9	43.9	43.9	73	35.8	0	0	---	0.00	30.011 
00:40	43.9	43.9	43.9	72	35.5	0	0	---	0.00	30.011 
00:45	44.1	44.1	44.1	72	35.7	0	0	---	0.00	30.008 
00:50	44.1	44.1	44.1	71	35.3	0	0	---	0.00	30.008 
00:55	44.2	44.2	44.2	71	35.4	0	0	---	0.00	30.008 
01:00	44.2	44.2	44.2	70	35.0	0	0	---	0.00	30.004 
01:05	44.2	44.2	44.2	71	35.4	0	0	---	0.00	30.004 
01:10	44.2	44.2	44.2	70	35.0	0	0	---	0.00	30.004 
01:15	44.2	44.2	44.2	70	35.0	0	0	---	0.00	29.999 
01:20	44.2	44.2	44.2	70	35.0	0	0	---	0.00	29.999 
01:25	44.2	44.2	44.2	70	35.0	0	0	---	0.00	29.999 
01:30	44.3	44.3	44.3	71	35.5	0	0	---	0.00	29.998 
01:35	44.2	44.2	44.2	70	35.0	0	0	---	0.00	29.998 
01:40	44.2	44.2	44.2	70	35.0	0	0	---	0.00	29.998 
01:45	44.2	44.2	44.2	70	35.0	0	0	---	0.00	29.997 
01:50	44.1	44.1	44.1	70	35.0	0	0	---	0.00	29.997 
01:55	43.9	43.9	43.9	71	35.1	0	1	68	0.00	29.997 
02:00	43.8	43.8	43.8	71	35.0	0	0	---	0.00	29.993 
02:05	43.8	43.8	43.8	72	35.4	0	0	---	0.00	29.993 
02:10	43.6	43.6	43.6	72	35.2	0	0	---	0.00	29.993 
02:15	43.8	43.8	43.8	72	35.4	0	0	---	0.00	29.989 
02:20	43.8	43.8	43.8	73	35.7	0	0	---	0.00	29.989 
02:25	43.8	43.8	43.8	73	35.7	0	0	---	0.00	29.989 
02:30	43.8	43.8	43.8	73	35.7	0	0	---	0.00	29.985 
02:35	43.8	43.8	43.8	73	35.7	0	0	---	0.00	29.985 
02:40	43.8	43.8	43.8	73	35.7	0	0	---	0.00	29.985 
02:45	43.8	43.8	43.8	73	35.7	0	0	---	0.00	29.982 
02:50	43.9	43.9	43.9	73	35.8	0	0	---	0.00	29.982 
02:55	43.9	43.9	43.9	74	36.2	0	0	---	0.00	29.982 
03:00	43.9	43.9	43.9	74	36.2	0	0	---	0.00	29.979 
03:05	43.9	43.9	43.9	74	36.2	0	0	---	0.00	29.979 
03:10	43.9	43.9	43.9	74	36.2	0	0	---	0.00	29.979 
03:15	43.8	43.8	43.8	74	36.1	0	0	---	0.00	29.974 
03:20	43.8	43.8	43.8	75	36.4	0	0	---	0.00	29.974 
03:25	43.8	43.8	43.8	75	36.4	0	0	---	0.00	29.974 
03:30	43.8	43.8	43.8	75	36.4	0	0	---	0.00	29.969 
03:35	43.6	43.6	43.6	75	36.2	0	0	---	0.00	29.969 
03:40	43.6	43.6	43.6	76	36.5	0	0	---	0.00	29.969 
03:45	43.5	43.5	43.5	76	36.4	0	0	---	0.00	29.963 
03:50	43.5	43.5	43.5	76	36.4	0	0	---	0.00	29.963 
03:55	43.5	43.5	43.5	76	36.4	0	0	---	0.00	29.963 
04:00	43.5	43.5	43.5	76	36.4	0	0	---	0.00	29.960 
04:05	43.3	43.3	43.3	76	36.3	0	0	---	0.00	29.960 
04:10	43.3	43.3	43.3	76	36.3	0	0	---	0.00	29.960 
04:15	43.3	43.3	43.3	76	36.3	0	0	---	0.00	29.952 
04:20	43.2	43.2	43.2	77	36.5	0	0	---	0.00	29.952 
04:25	43.1	43.1	43.1	77	36.4	0	0	---	0.00	29.952 
04:30	42.9	42.9	42.9	77	36.2	0	0	---	0.00	29.949 
04:35	42.8	42.8	42.8	77	36.1	0	0	---	0.00	29.949 
04:40	42.6	42.6	42.6	77	35.9	0	0	---	0.00	29.949 
04:45	42.6	42.6	42.6	78	36.2	0	0	---	0.00	29.949 
04:50	42.5	42.5	42.5	78	36.1	0	0	---	0.00	29.949 
04:55	42.3	42.3	42.3	78	35.9	0	0	---	0.00	29.949 
05:00	42.2	42.2	42.2	79	36.2	0	0	---	0.00	29.950 
05:05	42.2	42.2	42.2	79	36.2	0	0	---	0.00	29.950 
05:10	42.2	42.2	42.2	80	36.5	0	0	---	0.00	29.950 
05:15	42.2	42.2	42.2	80	36.5	0	0	---	0.00	29.944 
05:20	42.2	42.2	42.2	81	36.8	0	0	---	0.00	29.944 
05:25	42.2	42.2	42.2	81	36.8	0	0	---	0.00	29.944 
05:30	42.2	42.2	42.2	81	36.8	0	0	---	0.00	29.938 
05:35	42.2	42.2	42.2	81	36.8	0	0	---	0.00	29.938 
05:40	42.2	42.2	42.2	81	36.8	0	0	---	0.00	29.938 
05:45	42.3	42.3	42.3	81	36.9	0	0	---	0.00	29.935 
05:50	42.3	42.3	42.3	81	36.9	0	0	---	0.00	29.935 
05:55	42.3	42.3	42.3	81	36.9	0	0	---	0.00	29.935 
06:00	42.5	42.5	42.5	81	37.1	0	0	---	0.00	29.932 
06:05	42.5	42.5	42.5	81	37.1	0	0	---	0.00	29.932 
06:10	42.6	42.6	42.6	81	37.2	0	0	---	0.00	29.932 
06:15	42.6	42.6	42.6	80	36.9	0	0	---	0.00	29.933 
06:20	42.6	42.6	42.6	80	36.9	0	0	---	0.00	29.933 
06:25	42.6	42.6	42.6	80	36.9	0	0	---	0.00	29.933 
06:30	42.6	42.6	42.6	80	36.9	0	0	---	0.00	29.926 
06:35	42.8	42.8	42.8	80	37.1	0	0	---	0.00	29.926 
06:40	42.8	42.8	42.8	80	37.1	0	0	---	0.00	29.926 
06:45	42.8	42.8	42.8	80	37.1	0	0	---	0.00	29.922 
06:50	42.9	42.9	42.9	80	37.2	0	0	---	0.00	29.922 
06:55	42.9	42.9	42.9	80	37.2	0	0	---	0.00	29.922 
07:00	42.9	42.9	42.9	80	37.2	0	0	---	0.00	29.920 
07:05	43.1	43.1	43.1	79	37.0	0	0	---	0.00	29.920 
07:10	43.2	43.2	43.2	80	37.5	0	0	---	0.00	29.920 
07:15	43.2	43.2	43.2	79	37.1	0	0	---	0.00	29.922 
07:20	43.3	43.3	43.3	80	37.6	0	1	68	0.00	29.922 
07:25	43.3	43.3	43.3	79	37.2	0	2	45	0.00	29.922 
07:30	43.5	43.5	43.5	79	37.4	0	2	270	0.00	29.919 
07:35	43.5	43.5	43.5	79	37.4	0	1	270	0.00	29.919 
07:40	43.5	43.5	43.5	79	37.4	0	1	270	0.00	29.919 
07:45	43.5	43.5	43.5	79	37.4	0	1	270	0.00	29.917 
07:50	43.5	43.5	43.5	80	37.7	0	1	270	0.00	29.917 
07:55	43.5	43.5	43.5	80	37.7	0	1	270	0.00	29.917 
08:00	43.5	43.5	43.5	80	37.7	0	1	270	0.00	29.916 
08:05	43.5	43.5	43.5	81	38.1	0	1	270	0.00	29.916 
08:10	43.3	43.3	43.3	81	37.9	0	2	270	0.00	29.916 
08:15	43.3	43.3	43.3	82	38.2	0	2	270	0.00	29.921 
08:20	43.3	43.3	43.3	83	38.5	0	2	270	0.00	29.921 
08:25	43.2	43.2	43.2	84	38.7	0	3	270	0.00	29.921 
08:30	43.1	43.1	43.1	85	38.9	0	3	270	0.00	29.922 
08:35	42.9	42.9	42.9	85	38.7	0	2	270	0.00	29.922 
08:40	42.9	42.9	42.9	86	39.0	0	2	270	0.00	29.922 
08:45	42.8	42.8	42.8	87	39.2	0	2	270	0.00	29.922 
08:50	42.8	42.8	42.8	88	39.5	1	3	270	0.00	29.922 
08:55	42.5	42.5	42.5	88	39.2	2	5	270	0.01	29.922 
09:00	42.1	42.1	42.1	87	38.5	2	6	315	0.00	29.926 
09:05	41.8	41.8	41.8	87	38.2	2	5	315	0.00	29.926 
09:10	41.6	41.6	41.6	88	38.3	0	2	315	0.00	29.926 
09:15	41.6	41.6	41.6	88	38.3	1	4	315	0.00	29.932 
09:20	41.5	41.5	41.5	88	38.2	2	5	338	0.00	29.932 
09:25	41.3	41.3	41.3	88	38.0	2	5	338	0.00	29.932 
09:30	41.2	41.2	41.2	88	37.9	3	7	315	0.01	29.932 
09:35	41.1	41.1	41.1	88	37.8	1	4	315	0.00	29.932 
09:40	41.1	41.1	41.1	88	37.8	2	9	338	0.00	29.932 
09:45	40.8	40.8	40.8	88	37.5	3	7	315	0.00	29.934 
09:50	40.6	40.6	40.6	88	37.3	2	6	315	0.00	29.934 
09:55	40.6	40.6	40.6	88	37.3	1	5	338	0.00	29.934 
10:00	40.6	40.6	40.6	88	37.3	1	4	315	0.00	29.934 
10:05	40.6	40.6	40.6	89	37.6	1	9	315	0.00	29.934 
10:10	40.5	40.5	40.5	88	37.2	2	5	315	0.00	29.934 
10:15	40.3	40.3	40.3	89	37.3	1	4	315	0.00	29.934 
10:20	40.3	40.3	40.3	89	37.3	2	6	292	0.01	29.934 
10:25	40.2	40.2	40.2	89	37.2	2	5	292	0.00	29.934 
10:30	40.3	40.3	40.3	89	37.3	1	5	338	0.00	29.934 
10:35	40.3	40.3	40.3	89	37.3	1	4	270	0.00	29.934 
10:40	40.3	40.3	40.3	89	37.3	1	5	292	0.00	29.934 
10:45	40.2	40.2	40.2	89	37.2	1	4	292	0.00	29.932 
10:50	40.1	40.1	40.1	89	37.1	2	5	315	0.00	29.932 
10:55	39.9	39.9	39.9	88	36.6	2	6	315	0.00	29.932 
11:00	39.9	39.9	39.9	88	36.6	2	7	315	0.00	29.931 
11:05	39.9	39.9	39.9	88	36.6	2	4	292	0.00	29.931 
11:10	40.1	40.1	40.1	88	36.8	1	4	315	0.00	29.931 
11:15	40.2	40.2	40.2	88	36.9	1	4	315	0.00	29.926 
11:20	40.1	40.1	40.1	88	36.8	1	5	315	0.00	29.926 
11:25	40.1	40.1	40.1	88	36.8	1	5	292	0.00	29.926 
11:30	39.9	39.9	39.9	88	36.6	1	5	292	0.00	29.926 
11:35	39.8	39.8	39.8	88	36.5	2	5	315	0.00	29.926 
11:40	39.9	39.9	39.9	88	36.6	1	4	315	0.00	29.926 
11:45	39.8	39.8	39.8	88	36.5	2	4	270	0.01	29.926 
11:50	39.9	39.9	39.9	89	36.9	1	4	315	0.00	29.926 
11:55	40.1	40.1	40.1	89	37.1	1	4	315	0.00	29.926 
12:00	40.2	40.2	40.2	89	37.2	1	3	315	0.00	29.926 
12:05	40.6	40.6	40.6	90	37.9	1	4	315	0.00	29.926 
12:10	40.9	40.9	40.9	89	37.9	1	5	338	0.00	29.926 
12:15	41.1	41.1	41.1	89	38.1	1	3	338	0.00	29.924 
12:20	41.3	41.3	41.3	88	38.0	1	6	338	0.00	29.924 
12:25	41.2	41.2	41.2	88	37.9	0	3	338	0.00	29.924 
12:30	41.3	41.3	41.3	87	37.7	1	3	292	0.00	29.925 
12:35	41.3	41.3	41.3	87	37.7	1	5	338	0.00	29.925 
12:40	41.3	41.3	41.3	86	37.4	1	4	338	0.00	29.925 
12:45	41.5	41.5	41.5	86	37.6	1	5	270	0.00	29.919 
12:50	41.8	41.8	41.8	85	37.6	0	2	270	0.00	29.919 
12:55	42.2	42.2	42.2	85	38.0	0	1	270	0.00	29.919 
13:00	42.5	42.5	42.5	84	38.0	1	3	270	0.00	29.908 
13:05	42.3	42.3	42.3	82	37.2	1	4	315	0.00	29.908 
13:10	42.2	42.2	42.2	82	37.1	1	3	315	0.00	29.908 
13:15	42.1	42.1	42.1	82	37.0	0	2	315	0.00	29.907 
13:20	42.1	42.1	42.1	82	37.0	0	1	315	0.00	29.907 
13:25	42.1	42.1	42.1	82	37.0	0	2	315	0.00	29.907 
13:30	42.3	42.3	42.3	81	36.9	0	4	315	0.00	29.902 
13:35	42.5	42.5	42.5	81	37.1	0	0	---	0.00	29.902 
13:40	42.6	42.6	42.6	80	36.9	0	2	315	0.00	29.902 
13:45	42.5	42.5	42.5	79	36.5	1	4	270	0.00	29.904 
13:50	42.3	42.3	42.3	79	36.3	1	2	270	0.00	29.904 
13:55	42.3	42.3	42.3	80	36.6	0	2	270	0.00	29.904 
14:00	42.5	42.5	42.5	80	36.8	0	2	270	0.00	29.896 
14:05	42.6	42.6	42.6	80	36.9	1	4	270	0.00	29.896 
14:10	42.9	42.9	42.9	78	36.5	1	3	315	0.00	29.896 
14:15	43.2	43.2	43.2	77	36.5	2	4	292	0.00	29.894 
14:20	43.3	43.3	43.3	76	36.3	0	2	315	0.00	29.894 
14:25	43.5	43.5	43.5	75	36.1	0	3	315	0.00	29.894 
14:30	43.8	43.8	43.8	75	36.4	0	2	315	0.00	29.892 
14:35	44.2	44.2	44.2	75	36.8	0	2	315	0.00	29.892 
14:40	44.2	44.2	44.2	73	36.1	1	4	315	0.00	29.892 
14:45	43.9	43.9	43.9	72	35.5	1	4	315	0.00	29.892 
14:50	43.8	43.8	43.8	72	35.4	1	4	315	0.00	29.892 
14:55	43.8	43.8	43.8	72	35.4	1	3	338	0.00	29.892 
15:00	43.6	43.6	43.6	73	35.5	2	5	270	0.00	29.896 
15:05	43.5	43.5	43.5	74	35.8	1	4	270	0.00	29.896 
15:10	43.5	43.5	43.5	75	36.1	1	3	270	0.00	29.896 
15:15	43.5	43.5	43.5	73	35.4	1	5	315	0.00	29.896 
15:20	43.8	43.8	43.8	73	35.7	2	5	315	0.00	29.896 
15:25	43.9	43.9	43.9	72	35.5	2	6	315	0.00	29.896 
15:30	44.1	44.1	44.1	72	35.7	2	5	292	0.00	29.895 
15:35	44.1	44.1	44.1	72	35.7	2	6	338	0.00	29.895 
15:40	43.9	43.9	43.9	73	35.8	2	5	315	0.00	29.895 
15:45	43.6	43.6	43.6	74	35.9	1	6	315	0.00	29.904 
15:50	43.5	43.5	43.5	73	35.4	2	5	338	0.00	29.904 
15:55	43.5	43.5	43.5	72	35.1	1	5	315	0.00	29.904 
16:00	43.5	43.5	43.5	71	34.7	1	4	0	0.00	29.907 
16:05	43.6	43.6	43.6	70	34.5	1	5	338	0.00	29.907 
16:10	43.8	43.8	43.8	70	34.7	0	3	338	0.00	29.907 
16:15	44.1	44.1	44.1	68	34.2	1	5	22	0.00	29.908 
16:20	44.1	44.1	44.1	64	32.7	1	3	315	0.00	29.908 
16:25	44.1	44.1	44.1	64	32.7	1	4	292	0.00	29.908 
16:30	44.1	44.1	44.1	64	32.7	2	5	338	0.00	29.916 
16:35	43.3	41.1	43.3	70	34.2	4	10	338	0.00	29.916 
16:40	41.2	38.7	41.2	77	34.5	4	10	338	0.00	29.916 
16:45	39.5	35.9	39.5	81	34.2	5	11	338	0.00	29.942 
16:50	38.3	35.4	38.3	84	33.9	4	13	338	0.00	29.942 
16:55	37.8	37.8	37.8	85	33.7	3	11	338	0.00	29.942 
17:00	37.5	37.5	37.5	87	34.0	3	11	338	0.00	29.958 
17:05	37.5	37.5	37.5	88	34.3	2	8	0	0.00	29.958 
17:10	37.5	37.5	37.5	88	34.3	2	5	338	0.00	29.958 
17:15	37.5	37.5	37.5	89	34.6	2	7	338	0.01	29.967 
17:20	37.6	37.6	37.6	89	34.7	3	11	0	0.00	29.967 
17:25	37.8	37.8	37.8	89	34.9	1	9	315	0.00	29.967 
17:30	37.9	37.9	37.9	89	35.0	3	10	338	0.00	29.978 
17:35	37.8	37.8	37.8	88	34.6	2	7	315	0.00	29.978 
17:40	37.8	34.8	37.8	88	34.6	4	10	338	0.00	29.978 
17:45	37.6	37.6	37.6	88	34.4	2	13	315	0.00	29.990 
17:50	37.5	37.5	37.5	88	34.3	2	10	338	0.00	29.990 
17:55	37.3	34.2	37.3	88	34.1	4	13	338	0.00	29.990 
18:00	37.2	37.2	37.2	87	33.7	3	10	338	0.00	30.004 
18:05	37.2	37.2	37.2	87	33.7	3	11	338	0.00	30.004 
18:10	36.8	31.9	36.8	86	33.0	6	15	338	0.00	30.004 
18:15	36.5	33.3	36.5	87	33.0	4	10	338	0.00	30.013 
18:20	36.2	36.2	36.2	87	32.7	3	9	338	0.01	30.013 
18:25	35.9	32.6	35.9	88	32.7	4	13	315	0.00	30.013 
18:30	35.8	35.8	35.8	88	32.6	3	11	0	0.00	30.026 
18:35	35.5	35.5	35.5	88	32.3	3	8	338	0.00	30.026 
18:40	35.3	35.3	35.3	89	32.4	3	9	338	0.00	30.026 
18:45	35.3	35.3	35.3	89	32.4	3	10	338	0.00	30.035 
18:50	35.3	35.3	35.3	89	32.4	3	10	338	0.00	30.035 
18:55	35.5	35.5	35.5	89	32.6	3	9	338	0.00	30.035 
19:00	35.3	30.2	35.3	89	32.4	6	15	338	0.00	30.043 
19:05	35.2	31.8	35.2	88	32.0	4	12	0	0.01	30.043 
19:10	35.2	31.8	35.2	88	32.0	4	11	338	0.00	30.043 
19:15	35.0	31.5	35.0	87	31.5	4	9	338	0.00	30.051 
19:20	35.2	31.8	35.2	87	31.7	4	11	338	0.00	30.051 
19:25	35.3	35.3	35.3	85	31.2	3	9	315	0.00	30.051 
19:30	35.5	32.1	35.5	84	31.2	4	13	0	0.00	30.059 
19:35	35.5	35.5	35.5	84	31.2	3	14	338	0.00	30.059 
19:40	35.6	35.6	35.6	83	31.0	3	10	338	0.00	30.059 
19:45	35.8	32.5	35.8	82	30.9	4	11	338	0.00	30.064 
19:50	35.8	35.8	35.8	81	30.6	3	9	338	0.00	30.064 
19:55	35.9	35.9	35.9	80	30.3	3	9	338	0.00	30.064 
20:00	36.0	36.0	36.0	79	30.1	3	12	0	0.00	30.074 
20:05	36.0	36.0	36.0	79	30.1	2	13	338	0.00	30.074 
20:10	36.2	32.9	36.2	78	30.0	4	11	338	0.00	30.074 
20:15	36.0	32.7	36.0	76	29.2	4	10	338	0.00	30.089 
20:20	36.0	32.7	36.0	75	28.9	4	10	338	0.00	30.089 
20:25	36.0	32.7	36.0	74	28.5	4	11	338	0.00	30.089 
20:30	36.0	36.0	36.0	74	28.5	3	12	338	0.00	30.097 
20:35	35.9	32.6	35.9	73	28.1	4	13	338	0.00	30.097 
20:40	35.9	31.7	35.9	72	27.8	5	13	338	0.00	30.097 
20:45	35.8	31.5	35.8	71	27.3	5	11	315	0.00	30.104 
20:50	35.8	32.5	35.8	71	27.3	4	12	0	0.00	30.104 
20:55	35.8	32.5	35.8	72	27.7	4	11	338	0.00	30.104 
21:00	35.6	32.2	35.6	72	27.5	4	20	338	0.00	30.105 
21:05	35.6	35.6	35.6	72	27.5	2	10	338	0.00	30.105 
21:10	35.6	35.6	35.6	73	27.8	3	9	315	0.00	30.105 
21:15	35.6	32.2	35.6	72	27.5	4	7	338	0.00	30.108 
21:20	35.6	31.3	35.6	71	27.1	5	14	338	0.00	30.108 
21:25	35.6	35.6	35.6	72	27.5	2	6	338	0.00	30.108 
21:30	35.6	35.6	35.6	72	27.5	3	7	338	0.00	30.109 
21:35	35.6	35.6	35.6	72	27.5	3	9	338	0.00	30.109 
21:40	35.6	32.2	35.6	71	27.1	4	12	338	0.00	30.109 
21:45	35.8	35.8	35.8	71	27.3	3	11	315	0.00	30.118 
21:50	35.8	35.8	35.8	71	27.3	3	11	338	0.00	30.118 
21:55	35.8	35.8	35.8	71	27.3	2	6	338	0.00	30.118 
22:00	35.8	35.8	35.8	72	27.7	3	9	338	0.00	30.118 
22:05	35.8	35.8	35.8	72	27.7	3	7	292	0.00	30.118 
22:10	35.6	35.6	35.6	71	27.1	3	9	338	0.00	30.118 
22:15	35.6	32.2	35.6	71	27.1	4	10	338	0.00	30.124 
22:20	35.5	32.1	35.5	70	26.7	4	11	338	0.00	30.124 
22:25	35.5	32.1	35.5	70	26.7	4	9	338	0.00	30.124 
22:30	35.3	35.3	35.3	71	26.9	2	6	338	0.00	30.136 
22:35	35.3	31.9	35.3	71	26.9	4	11	315	0.00	30.136 
22:40	35.2	35.2	35.2	71	26.8	3	7	315	0.00	30.136 
22:45	35.2	31.8	35.2	70	26.4	4	10	338	0.00	30.139 
22:50	35.0	31.5	35.0	70	26.2	4	11	338	0.00	30.139 
22:55	35.0	31.5	35.0	69	25.9	4	13	338	0.00	30.139 
23:00	35.0	35.0	35.0	70	26.2	3	12	315	0.00	30.142 
23:05	34.9	34.9	34.9	70	26.1	2	10	315	0.00	30.142 
23:10	34.9	31.4	34.9	69	25.8	4	13	338	0.00	30.142 
23:15	34.9	34.9	34.9	69	25.8	3	7	338	0.00	30.148 
23:20	34.7	34.7	34.7	69	25.6	2	7	22	0.00	30.148 
23:25	34.7	31.2	34.7	69	25.6	4	11	338	0.00	30.148 
23:30	34.7	34.7	34.7	69	25.6	3	6	315	0.00	30.150 
23:35	34.6	31.1	34.6	68	25.1	4	11	0	0.00	30.150 
23:40	34.6	31.1	34.6	68	25.1	4	10	338	0.00	30.150 
23:45	34.4	34.4	34.4	68	24.9	3	8	315	0.00	30.154 
23:50	34.4	30.8	34.4	67	24.6	4	13	338	0.00	30.154 
23:55	34.3	34.3	34.3	67	24.5	3	7	315	0.00	30.154 

CoCoRaHS
IN-AL-39
A2 Web Hosting
Creative Commons License
GoDaddy
search engine by freefind advanced

loaded 2018-11-15 06:10:19 • last modified 2010-11-18 10:43:29
Privacy PolicyDisclaimer
• wx.awcolley.com is powered by PmWiki v.2002016 •
• all content (unless otherwise noted) © 2018 A W Colley